createdAt,value
2019-03-01T00:00:19.602Z,25.59
2019-03-01T00:01:19.570Z,25.3
2019-03-01T00:02:19.547Z,25.68
2019-03-01T00:03:19.540Z,25.88
2019-03-01T00:04:19.516Z,25.4
2019-03-01T00:05:19.494Z,25.68
2019-03-01T00:06:19.464Z,25.68
2019-03-01T00:07:19.449Z,25.4
2019-03-01T00:08:19.442Z,25.49
2019-03-01T00:09:19.411Z,25.4
2019-03-01T00:10:19.379Z,25.68
2019-03-01T00:11:19.366Z,25.49
2019-03-01T00:12:19.338Z,25.4
2019-03-01T00:13:19.327Z,25.49
2019-03-01T00:14:19.297Z,25.4
2019-03-01T00:15:19.281Z,25.4
2019-03-01T00:16:19.256Z,25.4
2019-03-01T00:17:19.243Z,25.4
2019-03-01T00:18:19.221Z,25.4
2019-03-01T00:19:19.198Z,25.4
2019-03-01T00:20:19.170Z,25.59
2019-03-01T00:21:19.156Z,25.49
2019-03-01T00:22:19.139Z,25.78
2019-03-01T00:23:19.111Z,25.68
2019-03-01T00:24:19.085Z,25.59
2019-03-01T00:25:19.064Z,25.68
2019-03-01T00:26:19.054Z,25.59
2019-03-01T00:27:19.033Z,25.59
2019-03-01T00:28:19.012Z,25.49
2019-03-01T00:29:18.981Z,25.49
2019-03-01T00:30:18.973Z,25.88
2019-03-01T00:31:18.947Z,25.49
2019-03-01T00:32:18.928Z,25.88
2019-03-01T00:33:18.903Z,25.49
2019-03-01T00:34:18.878Z,25.49
2019-03-01T00:35:18.865Z,25.88
2019-03-01T00:36:18.846Z,25.4
2019-03-01T00:37:18.818Z,25.49
2019-03-01T00:38:18.794Z,25.59
2019-03-01T00:39:18.781Z,25.49
2019-03-01T00:40:18.762Z,25.4
2019-03-01T00:41:18.755Z,25.49
2019-03-01T00:42:18.710Z,25.4
2019-03-01T00:43:18.695Z,25.3
2019-03-01T00:44:18.666Z,25.4
2019-03-01T00:45:18.657Z,25.3
2019-03-01T00:46:18.625Z,25.3
2019-03-01T00:47:18.608Z,25.3
2019-03-01T00:48:18.585Z,25.4
2019-03-01T00:49:18.581Z,25.2
2019-03-01T00:50:18.551Z,25.3
2019-03-01T00:51:18.526Z,25.1
2019-03-01T00:52:18.520Z,25.2
2019-03-01T00:53:18.486Z,25.2
2019-03-01T00:54:18.469Z,25.2
2019-03-01T00:55:18.441Z,25.3
2019-03-01T00:56:18.416Z,25.4
2019-03-01T00:57:18.398Z,25.49
2019-03-01T00:58:18.384Z,25.4
2019-03-01T00:59:18.358Z,25.49
2019-03-01T01:00:18.342Z,25.3
2019-03-01T01:01:18.311Z,25.4
2019-03-01T01:02:18.307Z,25.3
2019-03-01T01:03:18.283Z,25.3
2019-03-01T01:04:18.259Z,25.3
2019-03-01T01:05:18.228Z,25.3
2019-03-01T01:06:18.207Z,25.3
2019-03-01T01:07:18.195Z,25.1
2019-03-01T01:08:18.175Z,25.3
2019-03-01T01:09:18.148Z,25.4
2019-03-01T01:10:18.121Z,25.2
2019-03-01T01:11:18.134Z,25.2
2019-03-01T01:12:18.108Z,25.1
2019-03-01T01:13:18.072Z,25.4
2019-03-01T01:14:18.041Z,25.4
2019-03-01T01:15:18.023Z,25.4
2019-03-01T01:16:17.996Z,25.49
2019-03-01T01:17:17.987Z,25.49
2019-03-01T01:18:17.962Z,25.49
2019-03-01T01:19:17.938Z,25.49
2019-03-01T01:20:17.915Z,25.4
2019-03-01T01:21:17.903Z,25.4
2019-03-01T01:22:17.886Z,25.4
2019-03-01T01:23:17.855Z,25.3
2019-03-01T01:24:17.861Z,25.3
2019-03-01T01:25:17.814Z,25.3
2019-03-01T01:26:17.803Z,25.4
2019-03-01T01:27:17.772Z,25.3
2019-03-01T01:28:17.743Z,25.3
2019-03-01T01:29:17.725Z,25.59
2019-03-01T01:30:17.832Z,25.2
2019-03-01T01:31:17.686Z,25.3
2019-03-01T01:32:17.674Z,25.59
2019-03-01T01:33:17.640Z,25.3
2019-03-01T01:34:17.631Z,25.3
2019-03-01T01:35:17.606Z,25.2
2019-03-01T01:36:17.590Z,25.49
2019-03-01T01:37:17.577Z,25.59
2019-03-01T01:38:17.534Z,25.3
2019-03-01T01:39:17.525Z,25.49
2019-03-01T01:40:17.507Z,25.2
2019-03-01T01:41:17.479Z,25.49
2019-03-01T01:42:17.460Z,25.4
2019-03-01T01:43:17.438Z,25.4
2019-03-01T01:44:17.421Z,25.1
2019-03-01T01:45:17.417Z,25.2
2019-03-01T01:46:17.377Z,25.1
2019-03-01T01:47:17.366Z,24.91
2019-03-01T01:48:17.329Z,25.01
2019-03-01T01:49:17.086Z,25.1
2019-03-01T01:50:17.288Z,25.4
2019-03-01T01:51:17.268Z,25.2
2019-03-01T01:52:17.268Z,25.01
2019-03-01T01:53:17.252Z,24.91
2019-03-01T01:54:17.212Z,25.1
2019-03-01T01:55:17.184Z,24.91
2019-03-01T01:56:17.159Z,25.1
2019-03-01T01:57:17.149Z,25.01
2019-03-01T01:58:17.131Z,25.01
2019-03-01T01:59:17.099Z,24.82
2019-03-01T02:00:17.077Z,24.82
2019-03-01T02:01:17.054Z,24.91
2019-03-01T02:02:17.049Z,25.01
2019-03-01T02:03:17.016Z,25.1
2019-03-01T02:04:17.001Z,25.01
2019-03-01T02:05:16.971Z,24.91
2019-03-01T02:06:16.961Z,24.91
2019-03-01T02:07:16.946Z,24.91
2019-03-01T02:08:16.919Z,24.82
2019-03-01T02:09:16.916Z,24.82
2019-03-01T02:10:16.866Z,24.82
2019-03-01T02:11:16.850Z,24.91
2019-03-01T02:12:16.839Z,24.91
2019-03-01T02:13:16.811Z,24.72
2019-03-01T02:14:16.782Z,24.82
2019-03-01T02:15:16.809Z,24.72
2019-03-01T02:16:16.755Z,24.82
2019-03-01T02:17:16.728Z,24.82
2019-03-01T02:18:16.698Z,24.72
2019-03-01T02:19:16.692Z,24.72
2019-03-01T02:20:16.658Z,24.82
2019-03-01T02:21:16.644Z,25.1
2019-03-01T02:22:16.619Z,25.01
2019-03-01T02:23:16.598Z,24.72
2019-03-01T02:24:16.574Z,25.01
2019-03-01T02:25:16.554Z,25.01
2019-03-01T02:26:16.533Z,25.1
2019-03-01T02:27:16.517Z,25.2
2019-03-01T02:28:16.507Z,24.82
2019-03-01T02:29:16.474Z,25.2
2019-03-01T02:30:16.460Z,25.2
2019-03-01T02:31:16.553Z,24.82
2019-03-01T02:32:16.422Z,25.2
2019-03-01T02:33:16.397Z,24.72
2019-03-01T02:34:16.366Z,24.91
2019-03-01T02:35:16.351Z,24.82
2019-03-01T02:36:16.344Z,25.01
2019-03-01T02:37:16.312Z,25.01
2019-03-01T02:38:16.282Z,24.82
2019-03-01T02:39:16.285Z,25.01
2019-03-01T02:40:16.258Z,24.72
2019-03-01T02:41:16.233Z,25.01
2019-03-01T02:42:16.210Z,24.72
2019-03-01T02:43:16.182Z,24.72
2019-03-01T02:44:16.161Z,24.72
2019-03-01T02:45:16.142Z,24.82
2019-03-01T02:46:16.148Z,25.2
2019-03-01T02:47:16.096Z,25.01
2019-03-01T02:48:16.071Z,25.2
2019-03-01T02:49:16.067Z,24.72
2019-03-01T02:50:16.043Z,24.91
2019-03-01T02:51:16.014Z,24.91
2019-03-01T02:52:15.998Z,24.82
2019-03-01T02:53:15.967Z,24.91
2019-03-01T02:54:15.956Z,24.72
2019-03-01T02:55:15.941Z,24.91
2019-03-01T02:56:15.913Z,25.01
2019-03-01T02:57:15.883Z,24.91
2019-03-01T02:58:15.875Z,24.82
2019-03-01T02:59:15.845Z,25.01
2019-03-01T03:00:15.833Z,25.1
2019-03-01T03:01:15.809Z,25.01
2019-03-01T03:02:15.792Z,25.2
2019-03-01T03:03:15.783Z,25.4
2019-03-01T03:04:15.750Z,25.3
2019-03-01T03:05:15.731Z,25.49
2019-03-01T03:06:15.698Z,25.49
2019-03-01T03:07:15.713Z,25.2
2019-03-01T03:08:15.654Z,25.3
2019-03-01T03:09:15.651Z,25.3
2019-03-01T03:10:15.610Z,25.3
2019-03-01T03:11:15.594Z,25.4
2019-03-01T03:12:15.566Z,25.3
2019-03-01T03:13:15.564Z,25.3
2019-03-01T03:14:15.552Z,25.49
2019-03-01T03:15:15.507Z,25.49
2019-03-01T03:16:15.255Z,25.49
2019-03-01T03:17:15.468Z,25.59
2019-03-01T03:18:15.470Z,25.59
2019-03-01T03:19:15.425Z,25.68
2019-03-01T03:20:15.403Z,25.4
2019-03-01T03:21:15.380Z,25.4
2019-03-01T03:22:15.371Z,25.4
2019-03-01T03:23:15.353Z,25.49
2019-03-01T03:24:15.330Z,25.68
2019-03-01T03:25:15.299Z,25.49
2019-03-01T03:26:15.285Z,25.49
2019-03-01T03:27:15.342Z,25.59
2019-03-01T03:28:15.248Z,25.68
2019-03-01T03:29:15.215Z,25.4
2019-03-01T03:30:15.202Z,25.78
2019-03-01T03:31:15.187Z,25.78
2019-03-01T03:32:15.166Z,25.59
2019-03-01T03:33:15.177Z,25.68
2019-03-01T03:34:15.121Z,25.68
2019-03-01T03:35:15.097Z,25.49
2019-03-01T03:36:15.074Z,25.59
2019-03-01T03:37:15.055Z,25.59
2019-03-01T03:38:15.058Z,25.59
2019-03-01T03:39:15.011Z,25.4
2019-03-01T03:40:14.985Z,25.59
2019-03-01T03:41:14.978Z,25.4
2019-03-01T03:42:14.949Z,25.59
2019-03-01T03:43:14.931Z,25.78
2019-03-01T03:44:14.899Z,25.78
2019-03-01T03:45:14.886Z,25.68
2019-03-01T03:46:14.876Z,25.78
2019-03-01T03:47:14.846Z,25.68
2019-03-01T03:48:14.816Z,25.59
2019-03-01T03:49:14.580Z,25.59
2019-03-01T03:50:14.806Z,25.68
2019-03-01T03:51:14.797Z,26.07
2019-03-01T03:52:14.492Z,25.68
2019-03-01T03:53:14.731Z,25.98
2019-03-01T03:54:14.696Z,25.78
2019-03-01T03:55:14.683Z,25.88
2019-03-01T03:56:14.672Z,25.78
2019-03-01T03:57:14.629Z,25.88
2019-03-01T03:58:14.615Z,25.98
2019-03-01T03:59:14.591Z,25.59
2019-03-01T04:00:14.585Z,25.68
2019-03-01T04:01:14.541Z,25.78
2019-03-01T04:02:14.525Z,25.59
2019-03-01T04:03:14.506Z,25.68
2019-03-01T04:04:14.491Z,25.78
2019-03-01T04:05:14.470Z,25.68
2019-03-01T04:06:14.438Z,25.59
2019-03-01T04:07:14.428Z,25.68
2019-03-01T04:08:14.408Z,25.78
2019-03-01T04:09:14.385Z,25.68
2019-03-01T04:10:14.354Z,25.59
2019-03-01T04:11:14.336Z,25.68
2019-03-01T04:12:14.315Z,25.49
2019-03-01T04:13:16.601Z,25.59
2019-03-01T04:14:14.269Z,25.68
2019-03-01T04:15:14.251Z,25.49
2019-03-01T04:16:14.229Z,25.78
2019-03-01T04:17:14.235Z,25.59
2019-03-01T04:18:14.200Z,25.78
2019-03-01T04:19:14.169Z,25.68
2019-03-01T04:20:14.147Z,25.78
2019-03-01T04:21:14.134Z,25.59
2019-03-01T04:22:14.110Z,25.78
2019-03-01T04:23:14.091Z,25.78
2019-03-01T04:24:14.063Z,25.59
2019-03-01T04:25:14.050Z,25.68
2019-03-01T04:26:14.028Z,25.68
2019-03-01T04:27:13.998Z,25.68
2019-03-01T04:28:13.985Z,25.68
2019-03-01T04:29:13.960Z,25.59
2019-03-01T04:30:13.943Z,25.68
2019-03-01T04:31:13.918Z,25.78
2019-03-01T04:32:13.899Z,25.68
2019-03-01T04:33:13.874Z,25.59
2019-03-01T04:34:13.854Z,25.49
2019-03-01T04:35:13.837Z,25.68
2019-03-01T04:36:13.816Z,25.49
2019-03-01T04:37:13.789Z,25.49
2019-03-01T04:38:13.767Z,25.49
2019-03-01T04:39:13.750Z,25.49
2019-03-01T04:40:13.736Z,25.49
2019-03-01T04:41:13.715Z,25.78
2019-03-01T04:42:13.682Z,25.49
2019-03-01T04:43:13.666Z,25.59
2019-03-01T04:44:13.638Z,25.59
2019-03-01T04:45:13.631Z,25.78
2019-03-01T04:46:13.594Z,25.49
2019-03-01T04:47:13.579Z,25.68
2019-03-01T04:48:13.554Z,25.68
2019-03-01T04:49:13.553Z,25.68
2019-03-01T04:50:13.534Z,25.88
2019-03-01T04:51:13.495Z,25.59
2019-03-01T04:52:13.471Z,25.59
2019-03-01T04:53:13.458Z,25.59
2019-03-01T04:54:13.442Z,25.49
2019-03-01T04:55:13.412Z,25.68
2019-03-01T04:56:13.608Z,25.49
2019-03-01T04:57:13.372Z,25.59
2019-03-01T04:58:13.357Z,25.59
2019-03-01T04:59:13.329Z,25.49
2019-03-01T05:00:13.315Z,25.59
2019-03-01T05:01:13.282Z,25.59
2019-03-01T05:02:13.272Z,25.59
2019-03-01T05:03:13.250Z,25.59
2019-03-01T05:04:14.630Z,25.59
2019-03-01T05:05:13.207Z,25.59
2019-03-01T05:06:13.181Z,25.78
2019-03-01T05:07:13.161Z,25.59
2019-03-01T05:08:13.145Z,25.59
2019-03-01T05:09:13.119Z,25.59
2019-03-01T05:10:13.098Z,25.68
2019-03-01T05:11:13.079Z,25.59
2019-03-01T05:12:13.062Z,25.68
2019-03-01T05:13:13.040Z,25.49
2019-03-01T05:14:13.015Z,25.59
2019-03-01T05:15:14.532Z,25.68
2019-03-01T05:16:12.970Z,25.59
2019-03-01T05:17:12.958Z,25.59
2019-03-01T05:18:12.926Z,25.78
2019-03-01T05:19:12.913Z,25.59
2019-03-01T05:20:12.891Z,25.59
2019-03-01T05:21:12.876Z,25.68
2019-03-01T05:22:12.882Z,25.68
2019-03-01T05:23:12.836Z,25.68
2019-03-01T05:24:12.801Z,25.78
2019-03-01T05:25:12.798Z,25.68
2019-03-01T05:26:12.769Z,25.98
2019-03-01T05:27:12.749Z,25.98
2019-03-01T05:28:12.716Z,25.88
2019-03-01T05:29:13.083Z,25.78
2019-03-01T05:30:13.221Z,25.88
2019-03-01T05:31:12.666Z,25.98
2019-03-01T05:32:12.643Z,25.78
2019-03-01T05:33:12.611Z,25.88
2019-03-01T05:34:12.602Z,25.88
2019-03-01T05:35:12.574Z,25.78
2019-03-01T05:36:12.560Z,25.78
2019-03-01T05:37:12.529Z,25.78
2019-03-01T05:38:21.269Z,25.68
2019-03-01T05:39:12.492Z,25.78
2019-03-01T05:40:12.533Z,25.78
2019-03-01T05:41:12.448Z,25.78
2019-03-01T05:42:12.424Z,25.78
2019-03-01T05:43:12.413Z,25.78
2019-03-01T05:44:12.392Z,25.78
2019-03-01T05:45:12.370Z,25.78
2019-03-01T05:46:12.345Z,25.78
2019-03-01T05:47:12.323Z,25.78
2019-03-01T05:48:12.124Z,25.68
2019-03-01T05:49:12.282Z,25.88
2019-03-01T05:50:12.271Z,25.78
2019-03-01T05:51:12.251Z,25.78
2019-03-01T05:52:12.240Z,25.88
2019-03-01T05:53:12.195Z,25.78
2019-03-01T05:54:12.171Z,25.78
2019-03-01T05:55:12.160Z,25.78
2019-03-01T05:56:12.143Z,25.98
2019-03-01T05:57:12.116Z,25.98
2019-03-01T05:58:18.845Z,25.98
2019-03-01T05:59:12.071Z,25.88
2019-03-01T06:00:12.055Z,25.98
2019-03-01T06:01:12.037Z,25.98
2019-03-01T06:02:12.012Z,25.88
2019-03-01T06:03:11.990Z,25.78
2019-03-01T06:04:11.963Z,25.98
2019-03-01T06:05:11.966Z,25.98
2019-03-01T06:06:11.923Z,25.98
2019-03-01T06:07:11.909Z,25.88
2019-03-01T06:08:11.911Z,25.88
2019-03-01T06:09:11.873Z,25.78
2019-03-01T06:10:11.848Z,25.78
2019-03-01T06:11:11.822Z,25.78
2019-03-01T06:12:11.797Z,25.88
2019-03-01T06:13:11.778Z,25.49
2019-03-01T06:14:11.764Z,25.59
2019-03-01T06:15:11.737Z,25.59
2019-03-01T06:16:11.746Z,25.59
2019-03-01T06:17:11.695Z,25.68
2019-03-01T06:18:11.685Z,25.88
2019-03-01T06:19:11.651Z,25.49
2019-03-01T06:20:11.638Z,25.59
2019-03-01T06:21:11.607Z,25.68
2019-03-01T06:22:11.606Z,25.78
2019-03-01T06:23:11.576Z,25.88
2019-03-01T06:24:11.554Z,25.78
2019-03-01T06:25:11.542Z,25.98
2019-03-01T06:26:11.502Z,25.78
2019-03-01T06:27:11.491Z,25.68
2019-03-01T06:28:11.473Z,25.68
2019-03-01T06:29:11.442Z,25.68
2019-03-01T06:30:11.417Z,25.68
2019-03-01T06:31:11.413Z,25.68
2019-03-01T06:32:11.388Z,25.59
2019-03-01T06:33:11.365Z,25.78
2019-03-01T06:34:11.338Z,25.68
2019-03-01T06:35:11.332Z,25.68
2019-03-01T06:36:11.293Z,25.78
2019-03-01T06:37:11.286Z,25.78
2019-03-01T06:38:11.253Z,25.59
2019-03-01T06:39:11.236Z,25.68
2019-03-01T06:40:11.208Z,25.59
2019-03-01T06:41:11.201Z,25.68
2019-03-01T06:42:11.179Z,25.59
2019-03-01T06:43:11.155Z,25.49
2019-03-01T06:44:11.136Z,25.59
2019-03-01T06:45:11.112Z,25.4
2019-03-01T06:46:11.120Z,25.78
2019-03-01T06:47:11.067Z,25.49
2019-03-01T06:48:11.049Z,25.59
2019-03-01T06:49:11.033Z,25.4
2019-03-01T06:50:13.020Z,25.4
2019-03-01T06:51:10.987Z,25.4
2019-03-01T06:52:10.969Z,25.4
2019-03-01T06:53:10.938Z,25.4
2019-03-01T06:54:11.033Z,25.49
2019-03-01T06:55:10.937Z,25.49
2019-03-01T06:56:11.288Z,25.49
2019-03-01T06:57:10.981Z,25.59
2019-03-01T06:58:10.850Z,25.49
2019-03-01T06:59:10.818Z,25.59
2019-03-01T07:00:10.804Z,25.98
2019-03-01T07:01:10.777Z,25.59
2019-03-01T07:02:10.749Z,25.4
2019-03-01T07:03:10.736Z,25.59
2019-03-01T07:04:10.719Z,25.4
2019-03-01T07:05:10.705Z,25.49
2019-03-01T07:06:10.664Z,25.49
2019-03-01T07:07:10.844Z,25.4
2019-03-01T07:08:11.086Z,25.4
2019-03-01T07:09:10.616Z,25.49
2019-03-01T07:10:10.592Z,25.49
2019-03-01T07:11:10.571Z,25.49
2019-03-01T07:12:10.558Z,25.4
2019-03-01T07:13:10.529Z,25.49
2019-03-01T07:14:10.511Z,25.4
2019-03-01T07:15:11.283Z,25.49
2019-03-01T07:16:10.459Z,25.59
2019-03-01T07:17:10.455Z,25.4
2019-03-01T07:18:10.440Z,25.49
2019-03-01T07:19:10.397Z,25.59
2019-03-01T07:20:12.624Z,25.4
2019-03-01T07:21:10.351Z,25.59
2019-03-01T07:22:10.501Z,25.4
2019-03-01T07:23:10.316Z,25.59
2019-03-01T07:24:10.482Z,25.68
2019-03-01T07:25:10.271Z,25.68
2019-03-01T07:26:10.261Z,25.59
2019-03-01T07:27:12.211Z,25.59
2019-03-01T07:28:10.218Z,25.59
2019-03-01T07:29:10.185Z,25.88
2019-03-01T07:30:10.323Z,25.49
2019-03-01T07:31:09.932Z,25.49
2019-03-01T07:32:10.717Z,25.88
2019-03-01T07:33:10.199Z,25.78
2019-03-01T07:34:10.081Z,25.4
2019-03-01T07:35:10.114Z,25.3
2019-03-01T07:36:10.115Z,25.3
2019-03-01T07:37:10.171Z,25.3
2019-03-01T07:38:10.114Z,25.1
2019-03-01T07:39:10.033Z,25.4
2019-03-01T07:40:10.014Z,25.3
2019-03-01T07:41:10.049Z,25.49
2019-03-01T07:42:10.024Z,25.3
2019-03-01T07:43:10.217Z,25.49
2019-03-01T07:44:09.922Z,25.4
2019-03-01T07:45:10.287Z,25.3
2019-03-01T07:46:09.937Z,25.01
2019-03-01T07:47:09.857Z,25.4
2019-03-01T07:48:09.885Z,25.01
2019-03-01T07:49:09.792Z,25.01
2019-03-01T07:50:09.852Z,25.4
2019-03-01T07:51:09.896Z,25.4
2019-03-01T07:52:09.811Z,25.3
2019-03-01T07:53:09.739Z,25.3
2019-03-01T07:54:09.732Z,25.3
2019-03-01T07:55:11.832Z,25.3
2019-03-01T07:56:09.661Z,25.4
2019-03-01T07:57:11.402Z,25.4
2019-03-01T07:58:09.346Z,25.4
2019-03-01T07:59:09.563Z,25.49
2019-03-01T08:00:10.741Z,25.3
2019-03-01T08:01:09.516Z,25.2
2019-03-01T08:02:09.495Z,25.4
2019-03-01T08:03:11.752Z,25.4
2019-03-01T08:04:09.228Z,25.3
2019-03-01T08:05:09.436Z,25.49
2019-03-01T08:06:13.021Z,25.49
2019-03-01T08:07:09.401Z,25.2
2019-03-01T08:08:09.381Z,25.4
2019-03-01T08:09:09.364Z,25.4
2019-03-01T08:10:09.361Z,25.4
2019-03-01T08:11:10.043Z,25.49
2019-03-01T08:12:10.498Z,25.4
2019-03-01T08:13:09.283Z,25.4
2019-03-01T08:14:10.270Z,25.3
2019-03-01T08:15:11.678Z,25.49
2019-03-01T08:16:09.305Z,25.49
2019-03-01T08:17:09.192Z,25.4
2019-03-01T08:18:11.227Z,25.3
2019-03-01T08:19:09.146Z,25.4
2019-03-01T08:20:09.434Z,25.59
2019-03-01T08:21:14.760Z,25.3
2019-03-01T08:22:09.268Z,25.2
2019-03-01T08:23:09.109Z,24.91
2019-03-01T08:24:10.950Z,25.2
2019-03-01T08:25:08.784Z,25.1
2019-03-01T08:26:09.007Z,25.01
2019-03-01T08:27:13.410Z,25.01
2019-03-01T08:28:08.726Z,24.91
2019-03-01T08:29:08.929Z,25.01
2019-03-01T08:30:10.299Z,24.82
2019-03-01T08:31:09.870Z,24.82
2019-03-01T08:32:09.090Z,24.82
2019-03-01T08:33:10.535Z,25.1
2019-03-01T08:34:09.029Z,25.2
2019-03-01T08:35:09.291Z,24.72
2019-03-01T08:36:09.690Z,24.52
2019-03-01T08:37:10.416Z,24.62
2019-03-01T08:38:08.834Z,24.72
2019-03-01T08:39:09.490Z,24.82
2019-03-01T08:40:11.435Z,25.01
2019-03-01T08:41:08.962Z,24.72
2019-03-01T08:42:08.689Z,24.82
2019-03-01T08:43:14.213Z,24.82
2019-03-01T08:44:08.622Z,24.82
2019-03-01T08:45:08.657Z,24.82
2019-03-01T08:46:12.701Z,24.82
2019-03-01T08:47:08.558Z,24.62
2019-03-01T08:48:08.595Z,24.82
2019-03-01T08:49:10.373Z,24.91
2019-03-01T08:50:08.511Z,24.91
2019-03-01T08:51:08.949Z,24.82
2019-03-01T08:52:08.481Z,24.82
2019-03-01T08:53:11.345Z,24.72
2019-03-01T08:54:08.434Z,24.82
2019-03-01T08:55:08.706Z,24.82
2019-03-01T08:56:10.826Z,24.72
2019-03-01T08:57:08.444Z,24.82
2019-03-01T08:58:09.431Z,24.62
2019-03-01T08:59:08.621Z,24.91
2019-03-01T09:00:08.312Z,24.91
2019-03-01T09:01:11.782Z,25.01
2019-03-01T09:02:08.312Z,25.01
2019-03-01T09:03:09.000Z,25.1
2019-03-01T09:04:08.210Z,25.49
2019-03-01T09:05:12.181Z,25.49
2019-03-01T09:06:08.157Z,25.49
2019-03-01T09:07:08.158Z,25.49
2019-03-01T09:08:08.129Z,25.68
2019-03-01T09:09:08.840Z,25.4
2019-03-01T09:10:08.071Z,25.49
2019-03-01T09:11:12.602Z,24.82
2019-03-01T09:12:08.041Z,24.82
2019-03-01T09:13:08.066Z,25.01
2019-03-01T09:14:08.029Z,24.82
2019-03-01T09:15:10.040Z,24.82
2019-03-01T09:16:08.026Z,24.82
2019-03-01T09:17:07.799Z,24.72
2019-03-01T09:18:11.459Z,25.01
2019-03-01T09:19:08.218Z,25.01
2019-03-01T09:20:08.100Z,25.01
2019-03-01T09:21:12.132Z,25.01
2019-03-01T09:22:08.249Z,24.62
2019-03-01T09:23:27.076Z,24.62
2019-03-01T09:24:07.986Z,24.62
2019-03-01T09:25:10.137Z,25.1
2019-03-01T09:26:08.194Z,24.62
2019-03-01T09:27:07.886Z,24.62
2019-03-01T09:28:07.724Z,24.62
2019-03-01T09:29:07.687Z,24.82
2019-03-01T09:30:07.676Z,24.91
2019-03-01T09:31:07.711Z,24.82
2019-03-01T09:32:07.669Z,24.91
2019-03-01T09:33:07.693Z,24.91
2019-03-01T09:34:08.664Z,24.82
2019-03-01T09:35:10.708Z,24.82
2019-03-01T09:36:07.613Z,24.82
2019-03-01T09:37:07.524Z,24.72
2019-03-01T09:38:11.384Z,24.82
2019-03-01T09:39:07.470Z,24.91
2019-03-01T09:40:08.601Z,25.01
2019-03-01T09:41:07.826Z,24.82
2019-03-01T09:42:08.981Z,24.91
2019-03-01T09:43:07.393Z,24.82
2019-03-01T09:44:07.364Z,24.91
2019-03-01T09:45:10.368Z,24.82
2019-03-01T09:46:07.331Z,24.72
2019-03-01T09:47:07.345Z,24.82
2019-03-01T09:48:08.636Z,25.01
2019-03-01T09:49:07.030Z,25.01
2019-03-01T09:50:07.251Z,25.01
2019-03-01T09:51:10.510Z,25.01
2019-03-01T09:52:07.227Z,25.01
2019-03-01T09:53:07.176Z,24.91
2019-03-01T09:54:11.452Z,25.01
2019-03-01T09:55:07.140Z,24.72
2019-03-01T09:56:09.611Z,24.82
2019-03-01T09:57:07.135Z,24.91
2019-03-01T09:58:08.435Z,24.72
2019-03-01T09:59:07.056Z,24.82
2019-03-01T10:00:07.058Z,24.82
2019-03-01T10:01:07.025Z,24.82
2019-03-01T10:02:06.986Z,24.82
2019-03-01T10:03:07.143Z,24.62
2019-03-01T10:04:06.950Z,24.82
2019-03-01T10:05:07.261Z,24.72
2019-03-01T10:06:06.954Z,24.52
2019-03-01T10:07:06.896Z,24.52
2019-03-01T10:08:07.715Z,24.52
2019-03-01T10:09:06.851Z,24.72
2019-03-01T10:10:07.124Z,24.82
2019-03-01T10:11:07.406Z,24.82
2019-03-01T10:12:06.784Z,25.01
2019-03-01T10:13:06.771Z,24.82
2019-03-01T10:14:06.753Z,24.72
2019-03-01T10:15:06.824Z,25.01
2019-03-01T10:16:06.693Z,24.91
2019-03-01T10:17:06.671Z,25.01
2019-03-01T10:18:06.663Z,24.82
2019-03-01T10:19:06.634Z,24.91
2019-03-01T10:20:06.622Z,25.01
2019-03-01T10:21:06.593Z,24.82
2019-03-01T10:22:06.579Z,25.01
2019-03-01T10:23:06.562Z,25.01
2019-03-01T10:24:06.570Z,25.1
2019-03-01T10:25:06.509Z,25.3
2019-03-01T10:26:06.275Z,25.3
2019-03-01T10:27:06.470Z,25.3
2019-03-01T10:28:06.475Z,25.4
2019-03-01T10:29:06.467Z,25.59
2019-03-01T10:30:06.430Z,25.3
2019-03-01T10:31:06.447Z,25.4
2019-03-01T10:32:06.379Z,25.59
2019-03-01T10:33:06.360Z,25.59
2019-03-01T10:34:06.316Z,25.59
2019-03-01T10:35:06.314Z,25.68
2019-03-01T10:36:06.289Z,25.59
2019-03-01T10:37:06.529Z,25.2
2019-03-01T10:38:06.235Z,24.91
2019-03-01T10:39:06.226Z,24.82
2019-03-01T10:40:06.199Z,25.01
2019-03-01T10:41:06.184Z,25.01
2019-03-01T10:42:05.933Z,24.91
2019-03-01T10:43:05.896Z,24.91
2019-03-01T10:44:06.108Z,24.82
2019-03-01T10:45:06.161Z,24.91
2019-03-01T10:46:06.082Z,25.01
2019-03-01T10:47:06.073Z,25.01
2019-03-01T10:48:06.042Z,24.72
2019-03-01T10:49:06.003Z,24.72
2019-03-01T10:50:06.001Z,24.62
2019-03-01T10:51:05.966Z,24.82
2019-03-01T10:52:05.955Z,24.91
2019-03-01T10:53:06.031Z,24.72
2019-03-01T10:54:05.915Z,24.82
2019-03-01T10:55:05.819Z,24.82
2019-03-01T10:56:05.874Z,24.82
2019-03-01T10:57:05.875Z,24.72
2019-03-01T10:58:05.831Z,24.91
2019-03-01T10:59:05.805Z,25.01
2019-03-01T11:00:05.782Z,25.01
2019-03-01T11:01:05.822Z,24.82
2019-03-01T11:02:05.787Z,24.91
2019-03-01T11:03:05.892Z,25.01
2019-03-01T11:04:05.843Z,24.91
2019-03-01T11:05:06.124Z,25.01
2019-03-01T11:06:05.794Z,25.01
2019-03-01T11:07:05.656Z,24.91
2019-03-01T11:08:05.624Z,24.82
2019-03-01T11:09:05.737Z,24.82
2019-03-01T11:10:05.601Z,25.01
2019-03-01T11:11:05.563Z,25.01
2019-03-01T11:12:05.536Z,24.91
2019-03-01T11:13:05.501Z,24.82
2019-03-01T11:14:05.524Z,24.82
2019-03-01T11:15:05.470Z,24.91
2019-03-01T11:16:05.645Z,24.82
2019-03-01T11:17:05.604Z,24.72
2019-03-01T11:18:05.397Z,25.01
2019-03-01T11:19:05.498Z,24.62
2019-03-01T11:20:05.520Z,24.62
2019-03-01T11:21:05.597Z,25.2
2019-03-01T11:22:05.318Z,25.01
2019-03-01T11:23:05.310Z,24.72
2019-03-01T11:24:05.753Z,24.62
2019-03-01T11:25:05.028Z,25.2
2019-03-01T11:26:05.304Z,24.91
2019-03-01T11:27:15.189Z,24.72
2019-03-01T11:28:05.201Z,25.01
2019-03-01T11:29:05.185Z,25.01
2019-03-01T11:30:05.189Z,25.01
2019-03-01T11:31:05.133Z,24.62
2019-03-01T11:32:05.104Z,25.01
2019-03-01T11:33:05.102Z,24.82
2019-03-01T11:34:05.073Z,24.91
2019-03-01T11:35:05.052Z,25.01
2019-03-01T11:36:05.020Z,25.49
2019-03-01T11:37:05.003Z,25.3
2019-03-01T11:38:04.999Z,25.3
2019-03-01T11:39:04.964Z,25.2
2019-03-01T11:40:04.950Z,25.4
2019-03-01T11:41:04.914Z,25.01
2019-03-01T11:42:04.910Z,25.2
2019-03-01T11:43:04.892Z,25.01
2019-03-01T11:44:04.868Z,25.3
2019-03-01T11:45:04.834Z,25.1
2019-03-01T11:46:04.819Z,25.4
2019-03-01T11:47:04.798Z,25.4
2019-03-01T11:48:04.782Z,25.59
2019-03-01T11:49:05.198Z,25.78
2019-03-01T11:50:04.750Z,25.2
2019-03-01T11:51:04.758Z,25.4
2019-03-01T11:52:04.712Z,25.4
2019-03-01T11:53:04.747Z,25.59
2019-03-01T11:54:04.913Z,25.4
2019-03-01T11:55:04.655Z,25.49
2019-03-01T11:56:04.686Z,25.49
2019-03-01T11:57:04.593Z,25.49
2019-03-01T11:58:05.050Z,25.78
2019-03-01T11:59:04.802Z,25.49
2019-03-01T12:00:04.518Z,25.88
2019-03-01T12:01:04.587Z,25.59
2019-03-01T12:02:04.498Z,25.49
2019-03-01T12:03:04.463Z,25.4
2019-03-01T12:04:04.472Z,25.49
2019-03-01T12:05:04.425Z,25.59
2019-03-01T12:06:04.430Z,25.49
2019-03-01T12:07:04.484Z,25.49
2019-03-01T12:08:04.364Z,25.59
2019-03-01T12:09:04.589Z,25.59
2019-03-01T12:10:04.346Z,25.49
2019-03-01T12:11:04.361Z,25.49
2019-03-01T12:12:04.283Z,25.49
2019-03-01T12:13:04.249Z,25.59
2019-03-01T12:14:04.240Z,25.3
2019-03-01T12:15:04.216Z,26.17
2019-03-01T12:16:04.484Z,25.4
2019-03-01T12:17:04.273Z,25.59
2019-03-01T12:18:04.154Z,25.59
2019-03-01T12:19:04.141Z,25.49
2019-03-01T12:20:04.139Z,25.68
2019-03-01T12:21:04.089Z,25.78
2019-03-01T12:22:04.057Z,25.68
2019-03-01T12:23:04.052Z,25.59
2019-03-01T12:24:04.056Z,25.49
2019-03-01T12:25:04.010Z,25.78
2019-03-01T12:26:03.977Z,25.88
2019-03-01T12:27:03.959Z,25.68
2019-03-01T12:28:03.973Z,25.59
2019-03-01T12:29:03.992Z,25.88
2019-03-01T12:30:03.924Z,25.59
2019-03-01T12:31:04.580Z,25.59
2019-03-01T12:32:03.860Z,25.49
2019-03-01T12:33:03.842Z,25.78
2019-03-01T12:34:03.722Z,25.68
2019-03-01T12:35:03.899Z,25.68
2019-03-01T12:36:03.780Z,25.88
2019-03-01T12:37:03.769Z,25.68
2019-03-01T12:38:03.738Z,25.88
2019-03-01T12:39:03.713Z,25.78
2019-03-01T12:40:03.827Z,25.78
2019-03-01T12:41:03.676Z,25.68
2019-03-01T12:42:03.653Z,25.88
2019-03-01T12:43:03.628Z,25.88
2019-03-01T12:44:03.600Z,26.07
2019-03-01T12:45:03.592Z,25.98
2019-03-01T12:46:03.328Z,25.68
2019-03-01T12:47:03.549Z,25.59
2019-03-01T12:48:03.524Z,25.59
2019-03-01T12:49:03.510Z,25.68
2019-03-01T12:50:03.497Z,25.78
2019-03-01T12:51:03.463Z,25.59
2019-03-01T12:52:03.442Z,25.49
2019-03-01T12:53:03.765Z,25.68
2019-03-01T12:54:03.409Z,25.49
2019-03-01T12:55:03.383Z,25.78
2019-03-01T12:56:03.408Z,25.59
2019-03-01T12:57:03.333Z,25.78
2019-03-01T12:58:03.342Z,25.78